Terminal Aerodrome Forecast
Issued by NWS Charleston, WV

Current Version | Previous Version | Graphics & Text | Print | Product List | Glossary On
Versions: 1 2 3 4 5 6 7 8 9 10 11 12 13 14 15 16 17 18 19 20 21 22 23 24
000
FTUS41 KRLX 151500 AAA
TAFCRW
TAF AMD
KCRW 151529Z 1515/1612 VRB03KT P6SM SCT025
     FM151800 VRB03KT P6SM SCT250
     FM160600 17006KT 6SM -SHRA OVC050
     FM160800 18005KT 4SM -SHRA BR OVC030=

USA.gov is the U.S. government's official web portal to all federal, state and local government web resources and services.